Time;durP1;ratioP1;P1;durP2;ratioP2;P2;SDS_P1;SDS_P2;PMS_P1;PMS_P2;Temp;Humidity;BMP_temperature;BMP_pressure;BME280_temperature;BME280_humidity;BME280_pressure;Samples;Min_cycle;Max_cycle;Signal;HPM_P1;HPM_P2
2023/02/02 00:02:11;;;;;;;0.45;0.45;;;;;;;9.91;33.32;95166.63;5049903;28;20217;-63
2023/02/02 00:04:38;;;;;;;0.00;0.00;;;;;;;10.21;33.32;95161.78;5050561;28;20629;-63
2023/02/02 00:07:06;;;;;;;0.00;0.00;;;;;;;10.39;32.84;95169.31;5049194;28;20212;-65
2023/02/02 00:09:33;;;;;;;0.10;0.10;;;;;;;10.53;33.04;95162.63;5049911;28;20193;-64
2023/02/02 00:12:00;;;;;;;0.10;0.10;;;;;;;10.28;33.41;95162.38;5049537;28;20936;-64
2023/02/02 00:14:28;;;;;;;0.00;0.00;;;;;;;10.19;33.59;95156.00;5049713;28;20283;-63
2023/02/02 00:16:56;;;;;;;0.00;0.00;;;;;;;10.32;33.12;95160.06;5049180;28;20200;-62
2023/02/02 00:19:32;;;;;;;0.00;0.00;;;;;;;10.40;32.77;95160.41;5049743;28;20262;-63
2023/02/02 00:21:59;;;;;;;2.15;1.65;;;;;;;10.36;32.82;95167.19;5049407;28;20215;-66
2023/02/02 00:24:26;;;;;;;0.00;0.00;;;;;;;9.98;33.23;95167.28;5049487;28;20720;-64
2023/02/02 00:26:55;;;;;;;0.00;0.00;;;;;;;9.98;33.45;95167.28;5049439;28;20255;-64
2023/02/02 00:29:25;;;;;;;1.10;0.88;;;;;;;10.13;33.86;95170.06;5049737;28;20200;-63
2023/02/02 00:31:52;;;;;;;0.00;0.00;;;;;;;10.24;33.55;95173.59;5047685;28;20747;-66
2023/02/02 00:34:20;;;;;;;0.00;0.00;;;;;;;10.13;33.42;95165.63;5050111;28;20200;-62
2023/02/02 00:36:48;;;;;;;0.00;0.00;;;;;;;10.36;33.40;95180.28;5048246;28;20250;-64
2023/02/02 00:39:18;;;;;;;0.75;0.75;;;;;;;10.16;33.75;95174.84;5046451;28;20200;-63
2023/02/02 00:41:45;;;;;;;0.32;0.30;;;;;;;9.94;33.85;95189.72;5048601;28;20627;-65
2023/02/02 00:46:59;;;;;;;0.00;0.00;;;;;;;10.39;33.18;95184.22;5038347;28;20672;-62
2023/02/02 00:49:26;;;;;;;0.10;0.10;;;;;;;10.22;33.85;95175.69;5048055;28;20197;-64
2023/02/02 00:51:53;;;;;;;0.00;0.00;;;;;;;10.28;33.57;95183.34;5049055;28;20283;-63
2023/02/02 00:54:19;;;;;;;0.00;0.00;;;;;;;10.35;33.72;95178.69;5048884;28;20189;-63
2023/02/02 00:56:46;;;;;;;0.00;0.00;;;;;;;10.46;33.98;95179.56;5048872;28;20232;-65
2023/02/02 00:59:13;;;;;;;0.00;0.00;;;;;;;10.44;33.76;95181.69;5049052;28;20185;-61
2023/02/02 01:01:40;;;;;;;0.38;0.38;;;;;;;9.91;34.55;95171.88;5048811;28;20188;-62
2023/02/02 01:04:07;;;;;;;0.20;0.20;;;;;;;10.09;34.52;95176.84;5048851;28;20302;-62
2023/02/02 01:06:34;;;;;;;0.00;0.00;;;;;;;9.77;34.30;95160.19;5046846;28;20311;-62
2023/02/02 01:09:01;;;;;;;0.00;0.00;;;;;;;10.14;34.03;95171.66;5048543;28;20679;-65
2023/02/02 01:11:29;;;;;;;0.05;0.05;;;;;;;10.16;33.97;95169.59;5048823;28;20266;-62
2023/02/02 01:13:56;;;;;;;2.28;0.95;;;;;;;9.90;34.69;95160.63;5048381;28;20204;-66
2023/02/02 01:16:23;;;;;;;0.00;0.00;;;;;;;10.05;34.87;95162.63;5046691;28;20621;-64
2023/02/02 01:18:51;;;;;;;1.42;0.65;;;;;;;10.05;34.54;95157.41;5048223;28;20285;-63
2023/02/02 01:21:18;;;;;;;0.00;0.00;;;;;;;9.82;35.01;95162.88;5046801;28;20204;-64
2023/02/02 01:23:45;;;;;;;0.00;0.00;;;;;;;10.05;35.21;95152.16;5048273;28;20204;-65
2023/02/02 01:26:13;;;;;;;1.55;1.45;;;;;;;9.84;35.52;95155.56;5048045;28;20296;-64
2023/02/02 01:28:39;;;;;;;0.15;0.15;;;;;;;9.89;35.45;95155.66;5046844;28;20292;-65
2023/02/02 01:31:12;;;;;;;0.00;0.00;;;;;;;9.83;35.75;95146.16;5048221;28;20196;-64
2023/02/02 01:33:39;;;;;;;0.63;0.63;;;;;;;9.34;36.42;95144.47;5048174;28;20645;-61
2023/02/02 01:36:10;;;;;;;0.00;0.00;;;;;;;9.41;37.08;95134.63;5047974;28;20200;-62
2023/02/02 01:38:37;;;;;;;0.93;0.93;;;;;;;9.38;36.66;95145.59;5035292;28;20201;-66
2023/02/02 01:41:05;;;;;;;0.00;0.00;;;;;;;9.00;37.31;95128.84;5047374;28;20220;-66
2023/02/02 01:43:42;;;;;;;0.00;0.00;;;;;;;9.11;37.42;95141.03;5034085;28;20288;-62
2023/02/02 01:46:16;;;;;;;0.00;0.00;;;;;;;9.58;36.72;95135.38;5047958;28;20753;-62
2023/02/02 01:49:07;;;;;;;0.57;0.57;;;;;;;9.17;37.64;95137.47;5048451;28;20297;-63
2023/02/02 01:51:49;;;;;;;0.10;0.10;;;;;;;9.28;38.17;95135.78;5034748;28;20254;-65
2023/02/02 01:54:37;;;;;;;0.20;0.20;;;;;;;9.13;38.07;95133.72;5046811;28;20200;-65
2023/02/02 01:57:15;;;;;;;0.00;0.00;;;;;;;9.03;38.71;95123.13;5046750;28;20196;-65
2023/02/02 02:00:03;;;;;;;0.10;0.10;;;;;;;9.46;37.85;95132.88;5034424;28;20200;-65
2023/02/02 02:02:41;;;;;;;1.13;1.13;;;;;;;9.34;38.11;95113.09;5048336;28;20315;-63
2023/02/02 02:05:10;;;;;;;0.00;0.00;;;;;;;9.25;38.71;95111.94;5046445;28;20215;-64
2023/02/02 02:07:40;;;;;;;0.35;0.30;;;;;;;9.27;38.60;95109.88;5046927;28;20669;-63
2023/02/02 02:10:08;;;;;;;0.00;0.00;;;;;;;9.13;38.58;95106.78;5047080;28;20204;-62
2023/02/02 02:12:35;;;;;;;0.00;0.00;;;;;;;9.24;39.04;95116.34;5048159;28;20264;-64
2023/02/02 02:17:56;;;;;;;0.03;0.03;;;;;;;9.03;38.73;95130.19;5048147;28;20205;-62
2023/02/02 02:26:42;;;;;;;2.47;0.45;;;;;;;9.06;38.21;95135.72;5046344;28;20204;-66
2023/02/02 02:29:10;;;;;;;0.00;0.00;;;;;;;9.13;38.50;95128.50;5045992;28;20329;-62
2023/02/02 02:32:14;;;;;;;0.10;0.10;;;;;;;9.19;38.42;95122.31;5045471;28;20598;-64
2023/02/02 02:34:49;;;;;;;0.75;0.75;;;;;;;9.09;37.88;95127.41;5046318;28;20192;-63
2023/02/02 02:37:27;;;;;;;0.00;0.00;;;;;;;9.21;38.59;95128.06;5046550;28;20650;-63
2023/02/02 02:40:03;;;;;;;2.88;0.82;;;;;;;9.05;38.00;95128.91;5045108;28;20719;-62
2023/02/02 02:42:35;;;;;;;0.00;0.00;;;;;;;9.08;38.47;95125.81;5047980;28;20208;-65
2023/02/02 02:45:05;;;;;;;0.10;0.10;;;;;;;8.88;39.16;95109.84;5045642;28;20211;-64
2023/02/02 02:47:34;;;;;;;0.00;0.00;;;;;;;9.00;38.35;95123.63;5046665;28;20247;-65
2023/02/02 02:50:01;;;;;;;0.05;0.05;;;;;;;8.70;39.00;95127.59;5036771;28;20220;-62
2023/02/02 02:52:28;;;;;;;0.40;0.38;;;;;;;8.82;39.28;95121.25;5036987;28;20280;-62
2023/02/02 02:54:58;;;;;;;0.10;0.10;;;;;;;9.03;38.36;95125.75;5050641;28;20200;-64
2023/02/02 02:58:01;;;;;;;0.00;0.00;;;;;;;9.20;38.09;95118.66;5049870;28;20270;-63
2023/02/02 03:00:28;;;;;;;0.00;0.00;;;;;;;8.93;39.16;95119.56;5050034;28;20634;-63
2023/02/02 03:03:01;;;;;;;0.47;0.47;;;;;;;8.93;39.06;95128.22;5051238;28;20200;-63
2023/02/02 03:05:53;;;;;;;0.10;0.10;;;;;;;9.12;38.81;95116.44;5051140;28;20224;-63
2023/02/02 03:08:33;;;;;;;0.50;0.28;;;;;;;8.77;39.19;95118.56;5051051;28;20315;-63
2023/02/02 03:11:02;;;;;;;0.00;0.00;;;;;;;8.94;38.55;95116.72;5038161;28;20631;-64
2023/02/02 03:13:30;;;;;;;0.00;0.00;;;;;;;9.14;38.60;95119.63;5051158;28;20196;-63
2023/02/02 03:15:58;;;;;;;0.10;0.10;;;;;;;9.08;38.67;95131.06;5049897;28;20202;-65
2023/02/02 03:18:43;;;;;;;0.00;0.00;;;;;;;8.72;38.72;95121.09;5051451;28;20219;-64
2023/02/02 03:21:10;;;;;;;0.00;0.00;;;;;;;8.93;38.56;95107.31;5050843;28;20223;-64
2023/02/02 03:23:37;;;;;;;0.05;0.05;;;;;;;9.41;37.37;95114.50;5051306;28;20201;-65
2023/02/02 03:26:04;;;;;;;0.38;0.38;;;;;;;9.24;38.26;95113.75;5050717;28;20289;-62
2023/02/02 03:28:32;;;;;;;0.13;0.13;;;;;;;9.05;38.31;95115.84;5050759;28;20282;-64
2023/02/02 03:31:00;;;;;;;0.00;0.00;;;;;;;8.99;38.65;95119.44;5050324;28;20209;-62
2023/02/02 03:33:29;;;;;;;0.00;0.00;;;;;;;8.65;38.83;95117.84;5050992;28;20764;-63
2023/02/02 03:35:56;;;;;;;0.55;0.40;;;;;;;8.99;38.45;95129.88;5050423;28;20690;-63
2023/02/02 03:38:22;;;;;;;0.00;0.00;;;;;;;9.07;38.35;95123.44;5050638;28;20232;-62
2023/02/02 03:40:50;;;;;;;0.30;0.30;;;;;;;9.25;37.83;95125.81;5050097;28;20231;-67
2023/02/02 03:43:21;;;;;;;0.00;0.00;;;;;;;9.21;38.43;95125.47;5050798;28;20304;-64
2023/02/02 03:45:57;;;;;;;0.00;0.00;;;;;;;8.84;38.73;95116.59;5049634;28;20233;-68
2023/02/02 03:48:24;;;;;;;0.00;0.00;;;;;;;8.79;38.56;95124.34;5037870;28;20223;-62
2023/02/02 03:50:51;;;;;;;0.00;0.00;;;;;;;8.71;38.43;95135.19;5049826;28;20288;-62
2023/02/02 03:53:18;;;;;;;0.13;0.10;;;;;;;8.76;38.96;95137.88;5050745;28;20208;-61
2023/02/02 03:55:45;;;;;;;0.00;0.00;;;;;;;8.62;39.40;95136.63;5049193;28;21011;-64
2023/02/02 03:58:12;;;;;;;1.17;0.35;;;;;;;8.75;38.77;95141.53;5050729;28;20204;-64
2023/02/02 04:00:39;;;;;;;0.20;0.20;;;;;;;8.53;39.98;95138.03;5048874;28;20197;-63
2023/02/02 04:03:05;;;;;;;0.08;0.08;;;;;;;8.20;40.19;95115.25;5050405;28;20209;-64
2023/02/02 04:05:32;;;;;;;0.00;0.00;;;;;;;8.38;40.31;95129.94;5049651;28;20228;-65
2023/02/02 04:07:59;;;;;;;0.85;0.50;;;;;;;8.40;40.08;95122.66;5050428;28;20215;-63
2023/02/02 04:10:26;;;;;;;0.13;0.13;;;;;;;8.35;40.26;95135.63;5049071;28;20234;-65
2023/02/02 04:12:53;;;;;;;0.00;0.00;;;;;;;8.35;40.72;95132.22;5050305;28;21108;-63
2023/02/02 04:15:19;;;;;;;0.00;0.00;;;;;;;8.52;40.39;95133.81;5049639;28;20200;-63
2023/02/02 04:17:46;;;;;;;0.50;0.45;;;;;;;8.33;40.61;95127.25;5050317;28;20314;-62
2023/02/02 04:20:13;;;;;;;2.30;0.85;;;;;;;8.38;39.73;95129.94;5048596;28;20651;-66
2023/02/02 04:22:40;;;;;;;0.00;0.00;;;;;;;8.26;40.16;95118.78;5050145;28;20204;-64
2023/02/02 04:25:07;;;;;;;1.45;1.35;;;;;;;8.13;40.01;95116.44;5048993;28;20942;-64
2023/02/02 04:27:34;;;;;;;0.00;0.00;;;;;;;8.00;40.78;95135.78;5050136;28;20220;-62
2023/02/02 04:30:01;;;;;;;0.03;0.03;;;;;;;8.12;40.13;95131.28;5049361;28;20196;-65
2023/02/02 04:32:27;;;;;;;0.10;0.10;;;;;;;8.29;39.78;95126.13;5049874;28;20228;-65
2023/02/02 04:34:54;;;;;;;1.35;1.02;;;;;;;8.27;40.12;95146.44;5048876;28;20618;-66
2023/02/02 04:37:21;;;;;;;0.13;0.13;;;;;;;8.08;40.05;95139.81;5049314;28;20659;-65
2023/02/02 04:39:48;;;;;;;0.20;0.20;;;;;;;8.14;40.07;95141.47;5048845;28;20189;-63
2023/02/02 04:42:15;;;;;;;0.20;0.20;;;;;;;8.31;39.86;95131.91;5049350;28;20196;-62
2023/02/02 04:44:44;;;;;;;0.05;0.05;;;;;;;8.45;39.35;95146.25;5049348;28;20386;-64
2023/02/02 04:47:11;;;;;;;0.00;0.00;;;;;;;8.27;39.19;95159.50;5048638;28;20769;-65
2023/02/02 04:49:38;;;;;;;0.17;0.17;;;;;;;8.09;39.68;95157.06;5049425;28;20200;-65
2023/02/02 04:52:05;;;;;;;0.52;0.52;;;;;;;8.33;39.51;95150.75;5049051;28;20532;-64
2023/02/02 04:54:32;;;;;;;0.00;0.00;;;;;;;8.25;39.93;95158.94;5049742;28;20209;-65
2023/02/02 04:56:59;;;;;;;0.30;0.30;;;;;;;8.31;39.21;95139.75;5048783;28;20640;-62
2023/02/02 04:59:29;;;;;;;0.13;0.13;;;;;;;8.49;39.08;95149.97;5049007;28;20212;-63
2023/02/02 05:01:59;;;;;;;0.00;0.00;;;;;;;8.41;38.97;95150.34;5047896;28;20754;-62
2023/02/02 05:04:26;;;;;;;0.00;0.00;;;;;;;8.47;39.02;95149.41;5048380;28;20295;-62
2023/02/02 05:06:53;;;;;;;0.00;0.00;;;;;;;8.34;39.46;95136.66;5037740;28;20193;-64
2023/02/02 05:09:20;;;;;;;0.50;0.50;;;;;;;8.26;39.43;95152.72;5044352;28;20254;-65
2023/02/02 05:11:47;;;;;;;0.50;0.50;;;;;;;8.16;39.63;95163.72;5046408;28;20209;-63
2023/02/02 05:14:17;;;;;;;0.00;0.00;;;;;;;8.33;39.97;95155.16;5048546;28;20262;-64
2023/02/02 05:16:44;;;;;;;0.00;0.00;;;;;;;8.31;39.42;95152.00;5048140;28;20262;-64
2023/02/02 05:19:11;;;;;;;0.38;0.38;;;;;;;8.18;39.67;95156.47;5048656;28;20260;-63
2023/02/02 05:21:38;;;;;;;0.32;0.32;;;;;;;8.23;39.43;95148.72;5048502;28;20232;-62
2023/02/02 05:24:06;;;;;;;0.00;0.00;;;;;;;8.50;39.19;95143.75;5049707;28;20192;-63
2023/02/02 05:26:33;;;;;;;0.10;0.10;;;;;;;8.10;40.27;95148.22;5048928;28;20270;-64
2023/02/02 05:29:01;;;;;;;0.03;0.03;;;;;;;8.04;40.51;95146.53;5049792;28;20220;-60
2023/02/02 05:31:30;;;;;;;0.15;0.15;;;;;;;8.16;40.24;95155.91;5049566;28;20219;-64
2023/02/02 05:33:57;;;;;;;0.80;0.80;;;;;;;8.31;39.94;95158.00;5054448;28;20533;-61
2023/02/02 05:36:24;;;;;;;1.75;1.05;;;;;;;8.17;41.35;95159.31;5059905;28;20285;-61
2023/02/02 05:38:50;;;;;;;0.32;0.32;;;;;;;8.15;39.71;95163.97;5058941;28;20223;-58
2023/02/02 05:41:18;;;;;;;0.10;0.10;;;;;;;8.07;40.35;95172.97;5058170;28;20222;-59
2023/02/02 05:43:45;;;;;;;2.03;1.40;;;;;;;8.02;39.84;95165.03;5050520;28;20593;-64
2023/02/02 05:46:12;;;;;;;0.10;0.10;;;;;;;7.92;40.01;95169.25;5048509;28;20227;-62
2023/02/02 05:48:39;;;;;;;0.15;0.10;;;;;;;8.03;40.20;95176.25;5048833;28;20235;-64
2023/02/02 05:51:13;;;;;;;0.60;0.43;;;;;;;8.24;39.62;95170.44;5048533;28;20200;-64
2023/02/02 05:53:40;;;;;;;0.00;0.00;;;;;;;8.15;40.02;95177.00;5047577;28;20253;-64
2023/02/02 05:56:07;;;;;;;0.20;0.20;;;;;;;8.10;40.04;95174.31;5046028;28;20188;-62
2023/02/02 05:58:34;;;;;;;0.08;0.08;;;;;;;7.96;39.62;95183.41;5046652;28;20616;-64
2023/02/02 06:01:01;;;;;;;0.20;0.20;;;;;;;8.07;39.99;95180.78;5045909;28;20224;-62
2023/02/02 06:03:28;;;;;;;0.03;0.03;;;;;;;8.08;40.01;95182.34;5046332;28;20273;-64
2023/02/02 06:05:55;;;;;;;0.40;0.40;;;;;;;7.79;40.72;95177.38;5046312;28;20227;-65
2023/02/02 06:08:21;;;;;;;0.50;0.50;;;;;;;7.72;40.61;95171.50;5047468;28;20232;-62
2023/02/02 06:10:48;;;;;;;0.75;0.75;;;;;;;7.93;40.33;95178.69;5048058;28;20231;-61
2023/02/02 06:13:15;;;;;;;2.83;0.90;;;;;;;7.86;41.19;95178.81;5048551;28;20200;-63
2023/02/02 06:15:42;;;;;;;5.07;4.65;;;;;;;7.76;42.47;95185.63;5034868;28;20313;-65
2023/02/02 06:18:09;;;;;;;1.92;1.83;;;;;;;7.88;41.29;95183.81;5047903;28;20207;-62
2023/02/02 06:20:36;;;;;;;0.20;0.20;;;;;;;7.94;40.80;95185.47;5047497;28;20625;-63
2023/02/02 06:23:04;;;;;;;0.30;0.30;;;;;;;7.94;40.81;95188.06;5048963;28;20323;-63
2023/02/02 06:25:33;;;;;;;1.60;1.50;;;;;;;7.50;41.40;95199.19;5051668;28;20192;-62
2023/02/02 06:27:59;;;;;;;0.38;0.38;;;;;;;7.80;40.83;95189.38;5051755;28;20849;-61
2023/02/02 06:30:26;;;;;;;0.00;0.00;;;;;;;7.89;41.38;95204.44;5049997;28;20208;-60
2023/02/02 06:32:53;;;;;;;5.03;1.70;;;;;;;7.61;41.28;95208.81;5048803;28;20730;-61
2023/02/02 06:35:20;;;;;;;0.30;0.30;;;;;;;7.80;41.38;95211.03;5047711;28;20580;-63
2023/02/02 06:37:48;;;;;;;1.38;1.27;;;;;;;8.00;40.31;95206.22;5049911;28;20227;-59
2023/02/02 06:40:15;;;;;;;0.43;0.43;;;;;;;7.64;40.77;95211.75;5049081;28;20277;-62
2023/02/02 06:42:42;;;;;;;0.98;0.80;;;;;;;7.76;41.17;95209.09;5050932;28;20811;-62
2023/02/02 06:45:09;;;;;;;0.63;0.63;;;;;;;7.78;41.23;95233.16;5037768;28;20210;-61
2023/02/02 06:47:36;;;;;;;0.10;0.10;;;;;;;7.74;40.63;95213.75;5051226;28;20215;-63
2023/02/02 06:50:03;;;;;;;0.80;0.55;;;;;;;7.92;40.26;95221.44;5051246;28;20277;-61
2023/02/02 06:52:30;;;;;;;0.30;0.30;;;;;;;8.08;40.29;95212.91;5051135;28;20216;-62
2023/02/02 06:54:57;;;;;;;0.10;0.10;;;;;;;8.30;39.95;95229.53;5050731;28;20652;-63
2023/02/02 06:57:24;;;;;;;0.10;0.10;;;;;;;8.46;39.74;95231.41;5051389;28;20220;-62
2023/02/02 06:59:51;;;;;;;0.22;0.13;;;;;;;8.46;39.95;95220.97;5051175;28;20666;-61
2023/02/02 07:02:18;;;;;;;0.32;0.32;;;;;;;8.52;39.95;95230.44;5050852;28;20200;-64
2023/02/02 07:04:45;;;;;;;0.57;0.35;;;;;;;8.44;39.23;95219.59;5050784;28;20196;-60
2023/02/02 07:07:12;;;;;;;3.05;1.50;;;;;;;8.40;40.13;95232.31;5050667;28;20699;-63
2023/02/02 07:09:38;;;;;;;1.77;1.13;;;;;;;8.28;39.85;95239.44;5050820;28;20259;-62
2023/02/02 07:12:05;;;;;;;0.35;0.35;;;;;;;8.32;39.85;95234.53;5050292;28;20275;-61
2023/02/02 07:14:32;;;;;;;0.57;0.57;;;;;;;8.47;40.08;95229.56;5050729;28;20200;-63
2023/02/02 07:16:59;;;;;;;0.90;0.85;;;;;;;8.46;40.06;95231.41;5050298;28;20192;-62
2023/02/02 07:19:25;;;;;;;1.00;0.85;;;;;;;8.34;40.49;95235.88;5050509;28;20200;-61
2023/02/02 07:21:52;;;;;;;0.30;0.30;;;;;;;8.58;39.62;95234.75;5049763;28;20193;-60
2023/02/02 07:24:19;;;;;;;0.68;0.68;;;;;;;8.09;40.55;95220.50;5050227;28;20292;-62
2023/02/02 07:26:46;;;;;;;1.48;1.02;;;;;;;8.40;40.08;95232.31;5050072;28;20208;-62
2023/02/02 07:29:13;;;;;;;3.15;1.83;;;;;;;8.32;40.63;95240.53;5050469;28;20240;-61
2023/02/02 07:31:40;;;;;;;0.63;0.57;;;;;;;8.34;40.78;95232.47;5049820;28;20196;-64
2023/02/02 07:34:07;;;;;;;5.38;3.35;;;;;;;8.25;40.52;95252.91;5049919;28;20650;-62
2023/02/02 07:36:34;;;;;;;0.45;0.45;;;;;;;8.15;40.92;95244.88;5049687;28;20243;-61
2023/02/02 07:39:03;;;;;;;0.95;0.95;;;;;;;8.46;40.62;95252.28;5050562;28;20203;-63
2023/02/02 07:41:31;;;;;;;6.85;0.88;;;;;;;8.56;40.65;95244.63;5049713;28;20299;-61
2023/02/02 07:43:57;;;;;;;0.57;0.57;;;;;;;8.47;40.28;95253.88;5050050;28;20282;-61
2023/02/02 07:46:24;;;;;;;0.30;0.30;;;;;;;8.72;40.45;95238.66;5049883;28;20231;-63
2023/02/02 07:48:56;;;;;;;4.40;2.60;;;;;;;8.67;40.46;95230.72;5050020;28;20208;-62
2023/02/02 07:51:24;;;;;;;1.60;1.15;;;;;;;8.57;40.68;95227.94;5049526;28;20196;-62
2023/02/02 07:53:53;;;;;;;0.95;0.95;;;;;;;8.88;40.71;95203.94;5050719;28;20295;-63
2023/02/02 07:56:23;;;;;;;0.63;0.63;;;;;;;9.28;39.83;95200.34;5049356;28;20224;-62
2023/02/02 07:58:54;;;;;;;0.70;0.70;;;;;;;9.57;38.84;95199.19;5050023;28;20200;-61
2023/02/02 08:01:22;;;;;;;0.28;0.20;;;;;;;9.54;39.61;95194.44;5037230;28;20188;-62
2023/02/02 08:03:49;;;;;;;2.35;1.10;;;;;;;9.78;38.87;95198.44;5049760;28;20258;-63
2023/02/02 08:06:22;;;;;;;0.00;0.00;;;;;;;10.17;38.14;95197.34;5049798;28;20246;-62
2023/02/02 08:08:50;;;;;;;3.22;1.25;;;;;;;10.34;38.37;95190.22;5049874;28;20231;-60
2023/02/02 08:11:20;;;;;;;0.10;0.08;;;;;;;10.61;37.66;95191.00;5049515;28;20536;-61
2023/02/02 08:13:48;;;;;;;1.85;1.75;;;;;;;10.72;37.27;95190.06;5049929;28;20656;-62
2023/02/02 08:16:15;;;;;;;0.40;0.40;;;;;;;10.62;37.85;95195.19;5049776;28;20235;-62
2023/02/02 08:18:42;;;;;;;0.80;0.80;;;;;;;10.71;37.79;95167.50;5049822;28;20322;-61
2023/02/02 08:21:11;;;;;;;1.38;1.25;;;;;;;10.87;37.23;95187.59;5049427;28;20308;-60
2023/02/02 08:23:40;;;;;;;0.43;0.43;;;;;;;10.98;37.13;95177.97;5049656;28;20197;-63
2023/02/02 08:26:30;;;;;;;4.68;3.63;;;;;;;10.55;36.72;95184.13;5049503;28;20545;-60
2023/02/02 08:29:04;;;;;;;0.45;0.45;;;;;;;10.08;37.69;95183.06;5036129;28;20231;-61
2023/02/02 08:31:35;;;;;;;0.85;0.85;;;;;;;10.61;37.29;95146.47;5049362;28;20286;-61
2023/02/02 08:34:03;;;;;;;1.75;1.48;;;;;;;10.84;36.85;95172.34;5049566;28;20207;-62
2023/02/02 08:36:30;;;;;;;0.30;0.30;;;;;;;10.86;37.05;95167.63;5049255;28;20220;-62
2023/02/02 08:39:06;;;;;;;0.20;0.20;;;;;;;11.26;36.23;95156.66;5049418;28;20318;-63
2023/02/02 08:41:35;;;;;;;0.80;0.77;;;;;;;10.92;36.12;95157.97;5049246;28;20965;-61
2023/02/02 08:44:07;;;;;;;0.63;0.63;;;;;;;11.38;35.17;95145.97;5049747;28;20679;-63
2023/02/02 08:46:37;;;;;;;0.73;0.73;;;;;;;11.43;35.10;95148.63;5049252;28;20622;-65
2023/02/02 08:49:04;;;;;;;0.30;0.30;;;;;;;12.00;34.39;95145.00;5049515;28;20563;-63
2023/02/02 08:51:31;;;;;;;2.07;1.17;;;;;;;12.39;33.30;95132.19;5048591;28;20447;-61
2023/02/02 08:53:58;;;;;;;0.00;0.00;;;;;;;12.62;33.05;95126.47;5049181;28;20438;-62
2023/02/02 08:56:25;;;;;;;0.53;0.53;;;;;;;12.19;32.37;95132.16;5036149;28;20215;-62
2023/02/02 08:58:54;;;;;;;0.43;0.43;;;;;;;11.97;32.43;95134.22;5048852;28;20439;-62
2023/02/02 09:01:24;;;;;;;1.60;0.37;;;;;;;11.67;32.67;95144.56;5049067;28;20530;-63
2023/02/02 09:03:58;;;;;;;0.07;0.07;;;;;;;12.33;32.66;95146.41;5049082;28;20435;-62
2023/02/02 09:06:35;;;;;;;0.30;0.30;;;;;;;11.07;33.53;95150.22;5048796;28;20544;-61
2023/02/02 09:09:03;;;;;;;0.57;0.57;;;;;;;12.09;33.63;95148.69;5048788;28;20616;-62
2023/02/02 09:11:30;;;;;;;0.40;0.40;;;;;;;12.43;33.23;95138.50;5048143;28;20941;-62
2023/02/02 09:13:59;;;;;;;0.60;0.60;;;;;;;12.82;33.59;95131.72;5048092;28;20969;-66
2023/02/02 09:16:26;;;;;;;0.43;0.43;;;;;;;12.17;34.13;95135.03;5048656;28;20503;-62
2023/02/02 09:18:55;;;;;;;0.83;0.83;;;;;;;11.92;34.34;95137.59;5048502;28;20446;-62
2023/02/02 09:21:22;;;;;;;0.53;0.53;;;;;;;11.52;34.84;95136.59;5048221;28;20451;-62
2023/02/02 09:23:50;;;;;;;1.17;0.40;;;;;;;11.59;35.27;95137.16;5048545;28;20475;-64
2023/02/02 09:26:24;;;;;;;0.50;0.50;;;;;;;12.06;34.38;95130.03;5048353;28;20533;-62
2023/02/02 09:28:53;;;;;;;0.63;0.63;;;;;;;12.90;33.49;95127.78;5048301;28;20490;-65
2023/02/02 09:31:20;;;;;;;2.03;1.40;;;;;;;13.69;33.04;95120.03;5047776;28;20454;-63
2023/02/02 09:33:47;;;;;;;0.17;0.17;;;;;;;13.39;31.94;95114.84;5034902;28;20612;-63
2023/02/02 09:36:25;;;;;;;0.30;0.30;;;;;;;13.40;32.89;95108.53;5048011;28;20457;-62
2023/02/02 09:38:52;;;;;;;0.67;0.67;;;;;;;13.06;31.78;95109.09;5048325;28;20430;-64
2023/02/02 09:41:34;;;;;;;0.23;0.23;;;;;;;13.90;31.15;95095.97;5048566;28;20842;-64
2023/02/02 09:44:22;;;;;;;0.73;0.67;;;;;;;15.06;29.72;95088.09;5048247;28;20478;-62
2023/02/02 09:47:20;;;;;;;0.20;0.20;;;;;;;15.86;29.48;95064.50;5035212;28;20522;-59
2023/02/02 09:49:53;;;;;;;7.63;1.47;;;;;;;16.09;28.93;95092.78;5047629;28;20486;-63
2023/02/02 09:52:26;;;;;;;0.10;0.10;;;;;;;16.47;28.40;95081.16;5048642;28;20481;-64
2023/02/02 09:54:59;;;;;;;0.90;0.87;;;;;;;16.80;28.26;95080.13;5036163;28;20454;-65
2023/02/02 09:57:36;;;;;;;1.33;1.03;;;;;;;15.42;28.46;95074.56;5048658;28;20443;-62
2023/02/02 10:00:14;;;;;;;0.23;0.23;;;;;;;15.12;28.73;95073.78;5048133;28;20442;-62
2023/02/02 10:02:44;;;;;;;0.00;0.00;;;;;;;14.35;29.75;95065.97;5048418;28;20550;-63
2023/02/02 10:05:18;;;;;;;0.07;0.07;;;;;;;14.18;28.45;95068.16;5048112;28;20475;-63
2023/02/02 10:07:49;;;;;;;0.50;0.50;;;;;;;14.32;29.29;95079.72;5036075;28;20520;-65
2023/02/02 10:10:31;;;;;;;1.17;0.93;;;;;;;15.39;28.23;95052.09;5047867;28;20841;-65
2023/02/02 10:13:05;;;;;;;0.10;0.10;;;;;;;15.66;26.35;95064.75;5048441;28;20473;-63
2023/02/02 10:15:43;;;;;;;4.63;1.10;;;;;;;14.86;27.62;95046.03;5047274;28;21016;-63
2023/02/02 10:18:35;;;;;;;0.30;0.30;;;;;;;14.66;28.22;95048.88;5048504;28;20946;-65
2023/02/02 10:21:11;;;;;;;0.00;0.00;;;;;;;13.65;28.57;95055.81;5047364;28;20844;-62
2023/02/02 10:23:40;;;;;;;0.00;0.00;;;;;;;13.38;28.45;95050.09;5047933;28;20557;-62
2023/02/02 10:26:13;;;;;;;0.20;0.20;;;;;;;13.86;28.37;95041.47;5047586;28;20521;-64
2023/02/02 10:28:50;;;;;;;0.50;0.50;;;;;;;13.95;29.40;95042.47;5047833;28;20513;-65
2023/02/02 10:31:56;;;;;;;0.93;0.80;;;;;;;14.31;27.88;95049.13;5047313;28;20454;-61
2023/02/02 10:34:41;;;;;;;0.77;0.77;;;;;;;14.28;28.58;95044.41;5040023;28;20485;-62
2023/02/02 10:37:23;;;;;;;0.00;0.00;;;;;;;14.89;29.00;95037.56;5035941;28;21026;-61
2023/02/02 10:40:11;;;;;;;3.60;1.60;;;;;;;14.00;28.59;95029.25;5047501;28;21330;-65
2023/02/02 10:43:44;;;;;;;0.13;0.13;;;;;;;13.62;28.54;95027.38;5048299;28;20516;-63
2023/02/02 10:45:39;;;;;;;0.30;0.30;;;;;;;13.78;28.06;95013.06;5037667;28;21035;-61
2023/02/02 10:48:34;;;;;;;0.37;0.37;;;;;;;13.11;28.76;95006.53;5048272;28;20451;-62
2023/02/02 10:51:10;;;;;;;0.00;0.00;;;;;;;13.69;28.09;94993.63;5047198;28;20461;-63
2023/02/02 10:53:37;;;;;;;0.00;0.00;;;;;;;13.29;28.02;94988.53;5048282;28;20530;-64
2023/02/02 10:56:07;;;;;;;0.00;0.00;;;;;;;13.68;28.07;94987.59;5047257;28;20431;-63
2023/02/02 10:58:57;;;;;;;0.00;0.00;;;;;;;13.14;28.59;94989.38;5048044;28;20451;-64
2023/02/02 11:01:23;;;;;;;0.00;0.00;;;;;;;13.11;28.43;94982.84;5035388;28;20446;-64
2023/02/02 11:06:48;;;;;;;0.00;0.00;;;;;;;13.63;28.21;94973.66;5046248;28;20447;-62
2023/02/02 11:06:50;;;;;;;0.00;0.00;;;;;;;13.75;28.29;94966.22;5039156;28;20450;-62
2023/02/02 11:09:39;;;;;;;0.00;0.00;;;;;;;14.83;26.80;94967.47;5034816;28;20553;-62
2023/02/02 11:12:19;;;;;;;1.80;0.97;;;;;;;14.80;27.48;94961.94;5051017;28;20443;-62
2023/02/02 11:14:52;;;;;;;0.37;0.37;;;;;;;14.50;27.51;94968.31;5051307;28;20465;-62
2023/02/02 11:17:24;;;;;;;0.00;0.00;;;;;;;13.92;27.05;94958.72;5039567;28;20434;-64
2023/02/02 11:19:54;;;;;;;0.07;0.07;;;;;;;14.47;27.07;94958.31;5052827;28;20447;-62
2023/02/02 11:22:25;;;;;;;0.20;0.20;;;;;;;14.31;27.06;94951.59;5052997;28;20491;-63
2023/02/02 11:24:53;;;;;;;0.00;0.00;;;;;;;13.98;27.12;94962.88;5050648;28;20439;-64
2023/02/02 11:27:23;;;;;;;0.10;0.10;;;;;;;13.34;28.35;94964.88;5050752;28;20459;-65
2023/02/02 11:29:52;;;;;;;0.00;0.00;;;;;;;13.82;27.90;94937.72;5050498;28;20504;-61
2023/02/02 11:32:34;;;;;;;0.00;0.00;;;;;;;13.66;27.75;94923.09;5051483;28;20470;-63
2023/02/02 11:35:20;;;;;;;0.10;0.10;;;;;;;14.24;27.61;94927.38;5050456;28;20439;-63
2023/02/02 11:37:55;;;;;;;0.00;0.00;;;;;;;14.44;26.57;94931.72;5051120;28;20879;-67
2023/02/02 11:40:27;;;;;;;0.87;0.83;;;;;;;14.19;27.07;94922.16;5038284;28;20493;-63
2023/02/02 11:42:58;;;;;;;0.00;0.00;;;;;;;13.77;27.65;94921.97;5051394;28;20508;-65
2023/02/02 11:45:40;;;;;;;0.00;0.00;;;;;;;14.14;26.99;94916.94;5050619;28;20446;-62
2023/02/02 11:48:14;;;;;;;0.00;0.00;;;;;;;14.93;26.45;94911.16;5050518;28;20443;-61
2023/02/02 11:50:50;;;;;;;0.10;0.07;;;;;;;14.68;27.33;94912.22;5050105;28;20576;-63
2023/02/02 11:53:28;;;;;;;0.30;0.30;;;;;;;14.03;27.31;94912.81;5038032;28;20542;-65
2023/02/02 11:55:58;;;;;;;0.07;0.07;;;;;;;13.90;27.47;94895.00;5049503;28;21041;-66
2023/02/02 11:58:28;;;;;;;0.00;0.00;;;;;;;13.70;27.51;94900.41;5050785;28;20477;-62
2023/02/02 12:01:01;;;;;;;0.50;0.50;;;;;;;13.93;27.39;94884.69;5049562;28;20977;-64
2023/02/02 12:03:46;;;;;;;0.00;0.00;;;;;;;14.57;27.50;94884.38;5049690;28;20443;-63
2023/02/02 12:06:21;;;;;;;0.20;0.20;;;;;;;14.67;26.68;94886.13;5050225;28;20469;-63
2023/02/02 12:08:50;;;;;;;0.07;0.07;;;;;;;14.79;26.53;94879.41;5050739;28;20890;-65